sensor_id;sensor_type;location;lat;lon;timestamp;P1;durP1;ratioP1;P2;durP2;ratioP2
25495;SDS011;13405;54.370;10.028;2022-07-01T00:02:24;5.90;;;4.00;;
25495;SDS011;13405;54.370;10.028;2022-07-01T00:04:50;6.32;;;3.85;;
25495;SDS011;13405;54.370;10.028;2022-07-01T00:07:16;5.40;;;3.35;;
25495;SDS011;13405;54.370;10.028;2022-07-01T00:09:42;7.63;;;4.10;;
25495;SDS011;13405;54.370;10.028;2022-07-01T00:12:09;9.02;;;4.22;;
25495;SDS011;13405;54.370;10.028;2022-07-01T00:14:35;5.43;;;3.90;;
25495;SDS011;13405;54.370;10.028;2022-07-01T00:17:01;4.75;;;3.28;;
25495;SDS011;13405;54.370;10.028;2022-07-01T00:19:27;7.10;;;3.85;;
25495;SDS011;13405;54.370;10.028;2022-07-01T00:21:53;5.93;;;3.78;;
25495;SDS011;13405;54.370;10.028;2022-07-01T00:24:19;8.85;;;3.92;;
25495;SDS011;13405;54.370;10.028;2022-07-01T00:26:45;7.68;;;4.22;;
25495;SDS011;13405;54.370;10.028;2022-07-01T00:29:11;6.72;;;3.97;;
25495;SDS011;13405;54.370;10.028;2022-07-01T00:31:37;5.30;;;3.72;;
25495;SDS011;13405;54.370;10.028;2022-07-01T00:34:03;7.53;;;4.00;;
25495;SDS011;13405;54.370;10.028;2022-07-01T00:36:29;6.30;;;3.78;;
25495;SDS011;13405;54.370;10.028;2022-07-01T00:38:56;9.82;;;4.65;;
25495;SDS011;13405;54.370;10.028;2022-07-01T00:41:23;8.38;;;4.22;;
25495;SDS011;13405;54.370;10.028;2022-07-01T00:43:49;6.40;;;3.92;;
25495;SDS011;13405;54.370;10.028;2022-07-01T00:46:15;7.18;;;4.32;;
25495;SDS011;13405;54.370;10.028;2022-07-01T00:48:42;8.55;;;4.63;;
25495;SDS011;13405;54.370;10.028;2022-07-01T00:51:09;6.15;;;3.88;;
25495;SDS011;13405;54.370;10.028;2022-07-01T00:53:36;8.27;;;3.95;;
25495;SDS011;13405;54.370;10.028;2022-07-01T00:56:02;5.43;;;3.47;;
25495;SDS011;13405;54.370;10.028;2022-07-01T00:58:28;5.47;;;3.83;;
25495;SDS011;13405;54.370;10.028;2022-07-01T01:00:57;7.72;;;3.90;;
25495;SDS011;13405;54.370;10.028;2022-07-01T01:03:24;7.32;;;3.80;;
25495;SDS011;13405;54.370;10.028;2022-07-01T01:05:51;5.95;;;4.15;;
25495;SDS011;13405;54.370;10.028;2022-07-01T01:08:20;10.55;;;4.13;;
25495;SDS011;13405;54.370;10.028;2022-07-01T01:10:46;7.35;;;4.72;;
25495;SDS011;13405;54.370;10.028;2022-07-01T01:13:12;9.73;;;4.78;;
25495;SDS011;13405;54.370;10.028;2022-07-01T01:15:38;10.95;;;5.30;;
25495;SDS011;13405;54.370;10.028;2022-07-01T01:18:04;7.35;;;4.72;;
25495;SDS011;13405;54.370;10.028;2022-07-01T01:20:34;8.57;;;4.75;;
25495;SDS011;13405;54.370;10.028;2022-07-01T01:23:00;9.25;;;4.90;;
25495;SDS011;13405;54.370;10.028;2022-07-01T01:25:27;11.65;;;5.75;;
25495;SDS011;13405;54.370;10.028;2022-07-01T01:27:53;10.65;;;5.25;;
25495;SDS011;13405;54.370;10.028;2022-07-01T01:30:20;9.60;;;5.28;;
25495;SDS011;13405;54.370;10.028;2022-07-01T01:32:46;8.52;;;5.28;;
25495;SDS011;13405;54.370;10.028;2022-07-01T01:35:12;10.82;;;5.07;;
25495;SDS011;13405;54.370;10.028;2022-07-01T01:37:38;9.00;;;5.70;;
25495;SDS011;13405;54.370;10.028;2022-07-01T01:40:05;8.60;;;5.40;;
25495;SDS011;13405;54.370;10.028;2022-07-01T01:42:31;9.52;;;5.30;;
25495;SDS011;13405;54.370;10.028;2022-07-01T01:44:57;8.63;;;5.28;;
25495;SDS011;13405;54.370;10.028;2022-07-01T01:47:24;10.43;;;5.05;;
25495;SDS011;13405;54.370;10.028;2022-07-01T01:49:50;6.82;;;4.53;;
25495;SDS011;13405;54.370;10.028;2022-07-01T01:52:16;11.60;;;5.30;;
25495;SDS011;13405;54.370;10.028;2022-07-01T01:54:42;7.07;;;4.32;;
25495;SDS011;13405;54.370;10.028;2022-07-01T01:57:09;9.98;;;5.43;;
25495;SDS011;13405;54.370;10.028;2022-07-01T01:59:35;11.02;;;4.70;;
25495;SDS011;13405;54.370;10.028;2022-07-01T02:02:01;11.10;;;5.20;;
25495;SDS011;13405;54.370;10.028;2022-07-01T02:04:28;10.25;;;5.28;;
25495;SDS011;13405;54.370;10.028;2022-07-01T02:06:54;8.73;;;5.25;;
25495;SDS011;13405;54.370;10.028;2022-07-01T02:09:20;13.52;;;5.70;;
25495;SDS011;13405;54.370;10.028;2022-07-01T02:11:46;8.73;;;5.60;;
25495;SDS011;13405;54.370;10.028;2022-07-01T02:14:12;9.88;;;5.88;;
25495;SDS011;13405;54.370;10.028;2022-07-01T02:16:38;7.10;;;4.65;;
25495;SDS011;13405;54.370;10.028;2022-07-01T02:19:04;8.23;;;5.38;;
25495;SDS011;13405;54.370;10.028;2022-07-01T02:21:30;8.63;;;5.32;;
25495;SDS011;13405;54.370;10.028;2022-07-01T02:23:56;9.05;;;5.60;;
25495;SDS011;13405;54.370;10.028;2022-07-01T02:26:22;8.00;;;4.80;;
25495;SDS011;13405;54.370;10.028;2022-07-01T02:28:48;10.82;;;5.60;;
25495;SDS011;13405;54.370;10.028;2022-07-01T02:31:14;9.48;;;6.10;;
25495;SDS011;13405;54.370;10.028;2022-07-01T02:33:40;8.43;;;4.75;;
25495;SDS011;13405;54.370;10.028;2022-07-01T02:36:07;9.95;;;5.82;;
25495;SDS011;13405;54.370;10.028;2022-07-01T02:38:33;11.75;;;6.22;;
25495;SDS011;13405;54.370;10.028;2022-07-01T02:40:59;15.80;;;6.28;;
25495;SDS011;13405;54.370;10.028;2022-07-01T02:43:25;11.15;;;6.05;;
25495;SDS011;13405;54.370;10.028;2022-07-01T02:45:51;12.73;;;5.22;;
25495;SDS011;13405;54.370;10.028;2022-07-01T02:48:17;8.55;;;5.22;;
25495;SDS011;13405;54.370;10.028;2022-07-01T02:50:43;8.38;;;5.15;;
25495;SDS011;13405;54.370;10.028;2022-07-01T02:53:09;9.50;;;6.10;;
25495;SDS011;13405;54.370;10.028;2022-07-01T02:55:35;12.23;;;5.60;;
25495;SDS011;13405;54.370;10.028;2022-07-01T02:58:01;7.38;;;5.10;;
25495;SDS011;13405;54.370;10.028;2022-07-01T03:00:29;8.35;;;5.28;;
25495;SDS011;13405;54.370;10.028;2022-07-01T03:02:55;10.70;;;5.68;;
25495;SDS011;13405;54.370;10.028;2022-07-01T03:05:21;11.02;;;5.45;;
25495;SDS011;13405;54.370;10.028;2022-07-01T03:07:47;12.43;;;5.25;;
25495;SDS011;13405;54.370;10.028;2022-07-01T03:10:13;8.85;;;4.82;;
25495;SDS011;13405;54.370;10.028;2022-07-01T03:12:40;11.10;;;5.13;;
25495;SDS011;13405;54.370;10.028;2022-07-01T03:15:10;9.32;;;5.82;;
25495;SDS011;13405;54.370;10.028;2022-07-01T03:17:37;9.55;;;5.22;;
25495;SDS011;13405;54.370;10.028;2022-07-01T03:20:04;9.63;;;5.40;;
25495;SDS011;13405;54.370;10.028;2022-07-01T03:22:31;8.55;;;5.25;;
25495;SDS011;13405;54.370;10.028;2022-07-01T03:24:57;9.30;;;5.45;;
25495;SDS011;13405;54.370;10.028;2022-07-01T03:27:24;10.52;;;5.85;;
25495;SDS011;13405;54.370;10.028;2022-07-01T03:29:50;9.93;;;5.28;;
25495;SDS011;13405;54.370;10.028;2022-07-01T03:32:16;11.73;;;6.28;;
25495;SDS011;13405;54.370;10.028;2022-07-01T03:34:43;10.77;;;5.85;;
25495;SDS011;13405;54.370;10.028;2022-07-01T03:37:10;11.07;;;6.10;;
25495;SDS011;13405;54.370;10.028;2022-07-01T03:39:37;13.48;;;5.82;;
25495;SDS011;13405;54.370;10.028;2022-07-01T03:42:03;8.07;;;5.38;;
25495;SDS011;13405;54.370;10.028;2022-07-01T03:44:30;13.45;;;6.35;;
25495;SDS011;13405;54.370;10.028;2022-07-01T03:46:56;11.50;;;5.75;;
25495;SDS011;13405;54.370;10.028;2022-07-01T03:49:22;10.13;;;5.55;;
25495;SDS011;13405;54.370;10.028;2022-07-01T03:51:49;13.38;;;6.25;;
25495;SDS011;13405;54.370;10.028;2022-07-01T03:54:16;9.45;;;5.72;;
25495;SDS011;13405;54.370;10.028;2022-07-01T03:56:54;10.15;;;6.22;;
25495;SDS011;13405;54.370;10.028;2022-07-01T03:59:20;9.43;;;6.03;;
25495;SDS011;13405;54.370;10.028;2022-07-01T04:01:46;12.55;;;6.13;;
25495;SDS011;13405;54.370;10.028;2022-07-01T04:04:12;8.50;;;5.72;;
25495;SDS011;13405;54.370;10.028;2022-07-01T04:06:38;8.43;;;5.40;;
25495;SDS011;13405;54.370;10.028;2022-07-01T04:09:05;10.10;;;6.10;;
25495;SDS011;13405;54.370;10.028;2022-07-01T04:11:31;9.50;;;6.25;;
25495;SDS011;13405;54.370;10.028;2022-07-01T04:13:57;9.15;;;5.93;;
25495;SDS011;13405;54.370;10.028;2022-07-01T04:16:23;8.40;;;5.80;;
25495;SDS011;13405;54.370;10.028;2022-07-01T04:18:51;11.63;;;6.18;;
25495;SDS011;13405;54.370;10.028;2022-07-01T04:21:17;10.93;;;6.15;;
25495;SDS011;13405;54.370;10.028;2022-07-01T04:24:02;11.13;;;6.13;;
25495;SDS011;13405;54.370;10.028;2022-07-01T04:26:28;9.32;;;5.97;;
25495;SDS011;13405;54.370;10.028;2022-07-01T04:28:56;13.00;;;6.50;;
25495;SDS011;13405;54.370;10.028;2022-07-01T04:31:22;9.13;;;6.15;;
25495;SDS011;13405;54.370;10.028;2022-07-01T04:33:48;10.50;;;6.15;;
25495;SDS011;13405;54.370;10.028;2022-07-01T04:36:14;11.02;;;6.63;;
25495;SDS011;13405;54.370;10.028;2022-07-01T04:38:40;13.73;;;5.60;;
25495;SDS011;13405;54.370;10.028;2022-07-01T04:41:06;8.43;;;5.32;;
25495;SDS011;13405;54.370;10.028;2022-07-01T04:43:51;6.80;;;4.10;;
25495;SDS011;13405;54.370;10.028;2022-07-01T04:46:17;8.80;;;4.28;;
25495;SDS011;13405;54.370;10.028;2022-07-01T04:48:43;6.45;;;4.05;;
25495;SDS011;13405;54.370;10.028;2022-07-01T04:51:09;3.67;;;2.80;;
25495;SDS011;13405;54.370;10.028;2022-07-01T04:53:36;4.75;;;3.53;;
25495;SDS011;13405;54.370;10.028;2022-07-01T04:56:02;5.15;;;3.15;;
25495;SDS011;13405;54.370;10.028;2022-07-01T04:58:28;6.57;;;3.33;;
25495;SDS011;13405;54.370;10.028;2022-07-01T05:00:54;5.72;;;2.83;;
25495;SDS011;13405;54.370;10.028;2022-07-01T05:03:20;4.93;;;2.90;;
25495;SDS011;13405;54.370;10.028;2022-07-01T05:05:47;4.85;;;3.20;;
25495;SDS011;13405;54.370;10.028;2022-07-01T05:08:13;4.55;;;2.78;;
25495;SDS011;13405;54.370;10.028;2022-07-01T05:10:39;3.88;;;2.88;;
25495;SDS011;13405;54.370;10.028;2022-07-01T05:13:05;5.15;;;3.08;;
25495;SDS011;13405;54.370;10.028;2022-07-01T05:15:32;4.75;;;3.05;;
25495;SDS011;13405;54.370;10.028;2022-07-01T05:17:58;3.70;;;2.83;;
25495;SDS011;13405;54.370;10.028;2022-07-01T05:20:43;3.50;;;2.60;;
25495;SDS011;13405;54.370;10.028;2022-07-01T05:23:28;5.68;;;3.22;;
25495;SDS011;13405;54.370;10.028;2022-07-01T05:25:54;3.80;;;2.65;;
25495;SDS011;13405;54.370;10.028;2022-07-01T05:28:20;4.05;;;2.97;;
25495;SDS011;13405;54.370;10.028;2022-07-01T05:30:46;4.03;;;3.03;;
25495;SDS011;13405;54.370;10.028;2022-07-01T05:33:12;6.15;;;3.42;;
25495;SDS011;13405;54.370;10.028;2022-07-01T05:35:38;6.45;;;3.15;;
25495;SDS011;13405;54.370;10.028;2022-07-01T05:38:04;9.50;;;3.30;;
25495;SDS011;13405;54.370;10.028;2022-07-01T05:40:31;11.25;;;3.13;;
25495;SDS011;13405;54.370;10.028;2022-07-01T05:42:57;9.38;;;2.92;;
25495;SDS011;13405;54.370;10.028;2022-07-01T05:45:23;8.82;;;2.50;;
25495;SDS011;13405;54.370;10.028;2022-07-01T05:47:49;5.38;;;2.28;;
25495;SDS011;13405;54.370;10.028;2022-07-01T05:50:15;6.85;;;2.15;;
25495;SDS011;13405;54.370;10.028;2022-07-01T05:52:41;9.18;;;2.40;;
25495;SDS011;13405;54.370;10.028;2022-07-01T05:55:36;8.07;;;2.00;;
25495;SDS011;13405;54.370;10.028;2022-07-01T05:58:02;8.45;;;1.52;;
25495;SDS011;13405;54.370;10.028;2022-07-01T06:00:30;7.25;;;1.58;;
25495;SDS011;13405;54.370;10.028;2022-07-01T06:02:57;4.50;;;1.90;;
25495;SDS011;13405;54.370;10.028;2022-07-01T06:05:23;12.65;;;1.75;;
25495;SDS011;13405;54.370;10.028;2022-07-01T06:07:49;7.90;;;1.52;;
25495;SDS011;13405;54.370;10.028;2022-07-01T06:10:16;4.57;;;1.55;;
25495;SDS011;13405;54.370;10.028;2022-07-01T06:12:45;4.43;;;1.20;;
25495;SDS011;13405;54.370;10.028;2022-07-01T06:15:11;10.50;;;1.80;;
25495;SDS011;13405;54.370;10.028;2022-07-01T06:17:39;5.07;;;1.20;;
25495;SDS011;13405;54.370;10.028;2022-07-01T06:20:05;3.28;;;1.35;;
25495;SDS011;13405;54.370;10.028;2022-07-01T06:22:32;2.95;;;1.17;;
25495;SDS011;13405;54.370;10.028;2022-07-01T06:24:58;6.25;;;1.42;;
25495;SDS011;13405;54.370;10.028;2022-07-01T06:27:24;4.78;;;1.60;;
25495;SDS011;13405;54.370;10.028;2022-07-01T06:29:50;9.45;;;2.00;;
25495;SDS011;13405;54.370;10.028;2022-07-01T06:32:17;3.08;;;1.30;;
25495;SDS011;13405;54.370;10.028;2022-07-01T06:34:43;6.65;;;1.48;;
25495;SDS011;13405;54.370;10.028;2022-07-01T06:37:09;4.95;;;1.45;;
25495;SDS011;13405;54.370;10.028;2022-07-01T06:39:35;5.05;;;1.42;;
25495;SDS011;13405;54.370;10.028;2022-07-01T06:42:02;6.07;;;1.40;;
25495;SDS011;13405;54.370;10.028;2022-07-01T06:44:28;6.45;;;1.58;;
25495;SDS011;13405;54.370;10.028;2022-07-01T06:46:54;3.17;;;1.02;;
25495;SDS011;13405;54.370;10.028;2022-07-01T06:49:20;4.18;;;0.90;;
25495;SDS011;13405;54.370;10.028;2022-07-01T06:51:46;7.05;;;1.58;;
25495;SDS011;13405;54.370;10.028;2022-07-01T06:54:12;5.10;;;1.13;;
25495;SDS011;13405;54.370;10.028;2022-07-01T06:56:38;3.75;;;1.20;;
25495;SDS011;13405;54.370;10.028;2022-07-01T06:59:05;5.97;;;0.95;;
25495;SDS011;13405;54.370;10.028;2022-07-01T07:01:31;3.08;;;0.90;;
25495;SDS011;13405;54.370;10.028;2022-07-01T07:03:57;3.55;;;1.05;;
25495;SDS011;13405;54.370;10.028;2022-07-01T07:06:23;5.75;;;1.15;;
25495;SDS011;13405;54.370;10.028;2022-07-01T07:08:49;6.70;;;1.23;;
25495;SDS011;13405;54.370;10.028;2022-07-01T07:11:15;3.00;;;0.90;;
25495;SDS011;13405;54.370;10.028;2022-07-01T07:13:44;3.25;;;0.77;;
25495;SDS011;13405;54.370;10.028;2022-07-01T07:16:10;3.95;;;0.77;;
25495;SDS011;13405;54.370;10.028;2022-07-01T07:18:36;5.47;;;0.98;;
25495;SDS011;13405;54.370;10.028;2022-07-01T07:21:02;0.80;;;0.60;;
25495;SDS011;13405;54.370;10.028;2022-07-01T07:23:28;1.48;;;0.68;;
25495;SDS011;13405;54.370;10.028;2022-07-01T07:25:55;5.03;;;0.47;;
25495;SDS011;13405;54.370;10.028;2022-07-01T07:28:21;1.88;;;0.70;;
25495;SDS011;13405;54.370;10.028;2022-07-01T07:30:47;1.67;;;0.60;;
25495;SDS011;13405;54.370;10.028;2022-07-01T07:33:13;1.38;;;0.50;;
25495;SDS011;13405;54.370;10.028;2022-07-01T07:35:39;1.42;;;0.63;;
25495;SDS011;13405;54.370;10.028;2022-07-01T07:38:06;2.40;;;0.50;;
25495;SDS011;13405;54.370;10.028;2022-07-01T07:40:33;4.07;;;0.50;;
25495;SDS011;13405;54.370;10.028;2022-07-01T07:42:59;1.88;;;0.40;;
25495;SDS011;13405;54.370;10.028;2022-07-01T07:45:25;2.00;;;0.32;;
25495;SDS011;13405;54.370;10.028;2022-07-01T07:47:51;1.02;;;0.43;;
25495;SDS011;13405;54.370;10.028;2022-07-01T07:50:20;0.47;;;0.35;;
25495;SDS011;13405;54.370;10.028;2022-07-01T07:52:46;2.10;;;0.50;;
25495;SDS011;13405;54.370;10.028;2022-07-01T07:55:12;2.78;;;0.65;;
25495;SDS011;13405;54.370;10.028;2022-07-01T07:57:39;1.95;;;0.50;;
25495;SDS011;13405;54.370;10.028;2022-07-01T08:00:06;1.98;;;0.40;;
25495;SDS011;13405;54.370;10.028;2022-07-01T08:02:33;2.42;;;0.47;;
25495;SDS011;13405;54.370;10.028;2022-07-01T08:04:59;0.98;;;0.40;;
25495;SDS011;13405;54.370;10.028;2022-07-01T08:07:25;2.58;;;0.40;;
25495;SDS011;13405;54.370;10.028;2022-07-01T08:09:51;4.57;;;0.73;;
25495;SDS011;13405;54.370;10.028;2022-07-01T08:12:17;4.38;;;0.60;;
25495;SDS011;13405;54.370;10.028;2022-07-01T08:14:43;1.50;;;0.55;;
25495;SDS011;13405;54.370;10.028;2022-07-01T08:17:09;2.92;;;0.30;;
25495;SDS011;13405;54.370;10.028;2022-07-01T08:19:35;0.75;;;0.40;;
25495;SDS011;13405;54.370;10.028;2022-07-01T08:22:02;2.45;;;0.50;;
25495;SDS011;13405;54.370;10.028;2022-07-01T08:24:28;2.72;;;0.85;;
25495;SDS011;13405;54.370;10.028;2022-07-01T08:26:54;2.47;;;0.52;;
25495;SDS011;13405;54.370;10.028;2022-07-01T08:29:20;1.40;;;0.47;;
25495;SDS011;13405;54.370;10.028;2022-07-01T08:31:46;0.30;;;0.30;;
25495;SDS011;13405;54.370;10.028;2022-07-01T08:34:12;3.72;;;0.45;;
25495;SDS011;13405;54.370;10.028;2022-07-01T08:36:40;0.93;;;0.38;;
25495;SDS011;13405;54.370;10.028;2022-07-01T08:39:06;1.90;;;0.50;;
25495;SDS011;13405;54.370;10.028;2022-07-01T08:41:32;0.70;;;0.40;;
25495;SDS011;13405;54.370;10.028;2022-07-01T08:43:58;1.30;;;0.40;;
25495;SDS011;13405;54.370;10.028;2022-07-01T08:46:27;1.67;;;0.32;;
25495;SDS011;13405;54.370;10.028;2022-07-01T08:48:53;3.33;;;0.47;;
25495;SDS011;13405;54.370;10.028;2022-07-01T08:51:19;0.28;;;0.20;;
25495;SDS011;13405;54.370;10.028;2022-07-01T08:53:45;0.60;;;0.30;;
25495;SDS011;13405;54.370;10.028;2022-07-01T08:56:12;0.90;;;0.35;;
25495;SDS011;13405;54.370;10.028;2022-07-01T08:58:56;9.35;;;0.45;;
25495;SDS011;13405;54.370;10.028;2022-07-01T09:01:24;0.32;;;0.20;;
25495;SDS011;13405;54.370;10.028;2022-07-01T09:03:51;0.50;;;0.50;;
25495;SDS011;13405;54.370;10.028;2022-07-01T09:06:21;0.90;;;0.30;;
25495;SDS011;13405;54.370;10.028;2022-07-01T09:08:47;1.90;;;0.38;;
25495;SDS011;13405;54.370;10.028;2022-07-01T09:11:14;1.00;;;0.30;;
25495;SDS011;13405;54.370;10.028;2022-07-01T09:13:41;5.07;;;0.40;;
25495;SDS011;13405;54.370;10.028;2022-07-01T09:16:11;2.65;;;0.28;;
25495;SDS011;13405;54.370;10.028;2022-07-01T09:18:37;2.80;;;0.75;;
25495;SDS011;13405;54.370;10.028;2022-07-01T09:21:07;1.17;;;0.30;;
25495;SDS011;13405;54.370;10.028;2022-07-01T09:23:33;1.20;;;0.20;;
25495;SDS011;13405;54.370;10.028;2022-07-01T09:25:59;2.08;;;0.30;;
25495;SDS011;13405;54.370;10.028;2022-07-01T09:28:26;2.03;;;0.50;;
25495;SDS011;13405;54.370;10.028;2022-07-01T09:30:54;2.17;;;0.50;;
25495;SDS011;13405;54.370;10.028;2022-07-01T09:33:23;1.67;;;0.40;;
25495;SDS011;13405;54.370;10.028;2022-07-01T09:35:50;1.67;;;0.55;;
25495;SDS011;13405;54.370;10.028;2022-07-01T09:38:18;5.35;;;0.80;;
25495;SDS011;13405;54.370;10.028;2022-07-01T09:40:49;0.65;;;0.50;;
25495;SDS011;13405;54.370;10.028;2022-07-01T09:43:20;0.93;;;0.50;;
25495;SDS011;13405;54.370;10.028;2022-07-01T09:48:16;0.70;;;0.30;;
25495;SDS011;13405;54.370;10.028;2022-07-01T09:50:42;0.40;;;0.40;;
25495;SDS011;13405;54.370;10.028;2022-07-01T09:53:08;0.70;;;0.60;;
25495;SDS011;13405;54.370;10.028;2022-07-01T09:55:35;1.08;;;0.43;;
25495;SDS011;13405;54.370;10.028;2022-07-01T09:58:02;1.55;;;0.40;;
25495;SDS011;13405;54.370;10.028;2022-07-01T10:00:28;4.10;;;1.33;;
25495;SDS011;13405;54.370;10.028;2022-07-01T10:02:57;3.67;;;0.60;;
25495;SDS011;13405;54.370;10.028;2022-07-01T10:05:23;2.78;;;0.40;;
25495;SDS011;13405;54.370;10.028;2022-07-01T10:12:57;0.77;;;0.38;;
25495;SDS011;13405;54.370;10.028;2022-07-01T10:15:25;1.23;;;0.43;;
25495;SDS011;13405;54.370;10.028;2022-07-01T10:17:51;3.60;;;0.60;;
25495;SDS011;13405;54.370;10.028;2022-07-01T10:20:19;0.85;;;0.45;;
25495;SDS011;13405;54.370;10.028;2022-07-01T10:22:45;2.35;;;0.50;;
25495;SDS011;13405;54.370;10.028;2022-07-01T10:31:00;1.98;;;0.38;;
25495;SDS011;13405;54.370;10.028;2022-07-01T10:38:31;6.63;;;0.60;;
25495;SDS011;13405;54.370;10.028;2022-07-01T10:40:57;0.60;;;0.40;;
25495;SDS011;13405;54.370;10.028;2022-07-01T10:43:35;3.15;;;0.43;;
25495;SDS011;13405;54.370;10.028;2022-07-01T10:46:01;0.65;;;0.32;;
25495;SDS011;13405;54.370;10.028;2022-07-01T10:48:30;0.43;;;0.35;;
25495;SDS011;13405;54.370;10.028;2022-07-01T10:50:56;6.97;;;0.70;;
25495;SDS011;13405;54.370;10.028;2022-07-01T10:53:22;2.55;;;0.47;;
25495;SDS011;13405;54.370;10.028;2022-07-01T10:55:52;2.70;;;0.50;;
25495;SDS011;13405;54.370;10.028;2022-07-01T10:58:34;1.80;;;0.50;;
25495;SDS011;13405;54.370;10.028;2022-07-01T11:01:00;4.30;;;0.55;;
25495;SDS011;13405;54.370;10.028;2022-07-01T11:03:27;1.67;;;0.60;;
25495;SDS011;13405;54.370;10.028;2022-07-01T11:05:53;1.30;;;0.50;;
25495;SDS011;13405;54.370;10.028;2022-07-01T11:08:20;4.78;;;0.50;;
25495;SDS011;13405;54.370;10.028;2022-07-01T11:10:51;2.30;;;0.60;;
25495;SDS011;13405;54.370;10.028;2022-07-01T11:13:17;3.05;;;0.40;;
25495;SDS011;13405;54.370;10.028;2022-07-01T11:15:45;0.40;;;0.40;;
25495;SDS011;13405;54.370;10.028;2022-07-01T11:18:12;0.30;;;0.30;;
25495;SDS011;13405;54.370;10.028;2022-07-01T11:20:39;0.45;;;0.30;;
25495;SDS011;13405;54.370;10.028;2022-07-01T11:23:05;3.95;;;0.70;;
25495;SDS011;13405;54.370;10.028;2022-07-01T11:25:31;2.13;;;0.43;;
25495;SDS011;13405;54.370;10.028;2022-07-01T11:27:57;4.53;;;0.40;;
25495;SDS011;13405;54.370;10.028;2022-07-01T11:30:24;0.45;;;0.40;;
25495;SDS011;13405;54.370;10.028;2022-07-01T11:32:54;4.90;;;0.50;;
25495;SDS011;13405;54.370;10.028;2022-07-01T11:35:30;0.35;;;0.35;;
25495;SDS011;13405;54.370;10.028;2022-07-01T11:38:19;2.88;;;0.40;;
25495;SDS011;13405;54.370;10.028;2022-07-01T11:41:05;3.05;;;0.40;;
25495;SDS011;13405;54.370;10.028;2022-07-01T11:43:32;0.30;;;0.30;;
25495;SDS011;13405;54.370;10.028;2022-07-01T11:45:59;2.00;;;0.40;;
25495;SDS011;13405;54.370;10.028;2022-07-01T11:48:43;0.98;;;0.40;;
25495;SDS011;13405;54.370;10.028;2022-07-01T11:53:37;2.40;;;0.47;;
25495;SDS011;13405;54.370;10.028;2022-07-01T11:56:03;1.55;;;0.45;;
25495;SDS011;13405;54.370;10.028;2022-07-01T12:01:08;0.80;;;0.17;;
25495;SDS011;13405;54.370;10.028;2022-07-01T12:03:34;1.27;;;0.40;;
25495;SDS011;13405;54.370;10.028;2022-07-01T12:06:02;2.28;;;0.38;;
25495;SDS011;13405;54.370;10.028;2022-07-01T12:08:28;1.15;;;0.40;;
25495;SDS011;13405;54.370;10.028;2022-07-01T12:10:54;2.25;;;0.40;;
25495;SDS011;13405;54.370;10.028;2022-07-01T12:13:24;6.05;;;0.80;;
25495;SDS011;13405;54.370;10.028;2022-07-01T12:15:51;0.77;;;0.52;;
25495;SDS011;13405;54.370;10.028;2022-07-01T12:18:17;2.95;;;0.40;;
25495;SDS011;13405;54.370;10.028;2022-07-01T12:20:50;2.25;;;0.40;;
25495;SDS011;13405;54.370;10.028;2022-07-01T12:23:16;1.13;;;0.38;;
25495;SDS011;13405;54.370;10.028;2022-07-01T12:25:49;1.77;;;0.50;;
25495;SDS011;13405;54.370;10.028;2022-07-01T12:30:58;2.67;;;0.70;;
25495;SDS011;13405;54.370;10.028;2022-07-01T12:33:24;1.88;;;0.55;;
25495;SDS011;13405;54.370;10.028;2022-07-01T12:35:51;2.35;;;0.65;;
25495;SDS011;13405;54.370;10.028;2022-07-01T12:38:17;0.80;;;0.47;;
25495;SDS011;13405;54.370;10.028;2022-07-01T12:40:43;3.53;;;0.65;;
25495;SDS011;13405;54.370;10.028;2022-07-01T12:43:22;1.20;;;0.57;;
25495;SDS011;13405;54.370;10.028;2022-07-01T12:45:49;3.85;;;0.55;;
25495;SDS011;13405;54.370;10.028;2022-07-01T12:48:15;2.15;;;0.80;;
25495;SDS011;13405;54.370;10.028;2022-07-01T12:50:41;0.93;;;0.50;;
25495;SDS011;13405;54.370;10.028;2022-07-01T12:53:20;0.65;;;0.50;;
25495;SDS011;13405;54.370;10.028;2022-07-01T12:55:53;1.48;;;1.02;;
25495;SDS011;13405;54.370;10.028;2022-07-01T12:58:21;2.20;;;0.73;;
25495;SDS011;13405;54.370;10.028;2022-07-01T13:00:50;3.60;;;0.70;;
25495;SDS011;13405;54.370;10.028;2022-07-01T13:03:20;5.38;;;0.98;;
25495;SDS011;13405;54.370;10.028;2022-07-01T13:05:48;1.67;;;0.80;;
25495;SDS011;13405;54.370;10.028;2022-07-01T13:08:14;1.58;;;0.63;;
25495;SDS011;13405;54.370;10.028;2022-07-01T13:10:41;2.88;;;0.80;;
25495;SDS011;13405;54.370;10.028;2022-07-01T13:13:07;2.25;;;0.60;;
25495;SDS011;13405;54.370;10.028;2022-07-01T13:15:34;1.77;;;0.70;;
25495;SDS011;13405;54.370;10.028;2022-07-01T13:18:01;0.88;;;0.52;;
25495;SDS011;13405;54.370;10.028;2022-07-01T13:20:27;3.50;;;0.90;;
25495;SDS011;13405;54.370;10.028;2022-07-01T13:22:53;3.25;;;0.70;;
25495;SDS011;13405;54.370;10.028;2022-07-01T13:25:20;3.70;;;0.80;;
25495;SDS011;13405;54.370;10.028;2022-07-01T13:27:46;5.20;;;0.95;;
25495;SDS011;13405;54.370;10.028;2022-07-01T13:30:13;2.53;;;0.82;;
25495;SDS011;13405;54.370;10.028;2022-07-01T13:32:41;1.40;;;0.60;;
25495;SDS011;13405;54.370;10.028;2022-07-01T13:35:07;2.05;;;0.68;;
25495;SDS011;13405;54.370;10.028;2022-07-01T13:37:35;4.75;;;0.70;;
25495;SDS011;13405;54.370;10.028;2022-07-01T13:40:01;0.40;;;0.40;;
25495;SDS011;13405;54.370;10.028;2022-07-01T13:42:28;0.73;;;0.40;;
25495;SDS011;13405;54.370;10.028;2022-07-01T13:44:54;3.75;;;0.60;;
25495;SDS011;13405;54.370;10.028;2022-07-01T13:47:20;0.60;;;0.32;;
25495;SDS011;13405;54.370;10.028;2022-07-01T13:49:46;0.55;;;0.40;;
25495;SDS011;13405;54.370;10.028;2022-07-01T13:52:12;1.55;;;0.63;;
25495;SDS011;13405;54.370;10.028;2022-07-01T13:54:38;1.77;;;0.32;;
25495;SDS011;13405;54.370;10.028;2022-07-01T13:57:04;0.75;;;0.32;;
25495;SDS011;13405;54.370;10.028;2022-07-01T13:59:31;1.85;;;0.60;;
25495;SDS011;13405;54.370;10.028;2022-07-01T14:01:58;1.95;;;0.40;;
25495;SDS011;13405;54.370;10.028;2022-07-01T14:04:26;5.25;;;0.70;;
25495;SDS011;13405;54.370;10.028;2022-07-01T14:06:55;1.20;;;0.47;;
25495;SDS011;13405;54.370;10.028;2022-07-01T14:09:21;2.35;;;0.50;;
25495;SDS011;13405;54.370;10.028;2022-07-01T14:11:47;2.65;;;0.50;;
25495;SDS011;13405;54.370;10.028;2022-07-01T14:14:14;5.10;;;0.70;;
25495;SDS011;13405;54.370;10.028;2022-07-01T14:16:40;3.45;;;0.40;;
25495;SDS011;13405;54.370;10.028;2022-07-01T14:19:06;1.30;;;0.40;;
25495;SDS011;13405;54.370;10.028;2022-07-01T14:21:32;2.28;;;0.60;;
25495;SDS011;13405;54.370;10.028;2022-07-01T14:23:58;3.60;;;0.73;;
25495;SDS011;13405;54.370;10.028;2022-07-01T14:26:24;1.02;;;0.60;;
25495;SDS011;13405;54.370;10.028;2022-07-01T14:28:50;7.57;;;0.75;;
25495;SDS011;13405;54.370;10.028;2022-07-01T14:31:16;1.00;;;0.80;;
25495;SDS011;13405;54.370;10.028;2022-07-01T14:33:42;3.10;;;0.75;;
25495;SDS011;13405;54.370;10.028;2022-07-01T14:36:08;1.35;;;0.73;;
25495;SDS011;13405;54.370;10.028;2022-07-01T14:38:34;3.08;;;0.38;;
25495;SDS011;13405;54.370;10.028;2022-07-01T14:41:00;1.70;;;0.40;;
25495;SDS011;13405;54.370;10.028;2022-07-01T14:43:27;3.25;;;0.90;;
25495;SDS011;13405;54.370;10.028;2022-07-01T14:45:54;2.17;;;0.68;;
25495;SDS011;13405;54.370;10.028;2022-07-01T14:48:20;0.60;;;0.52;;
25495;SDS011;13405;54.370;10.028;2022-07-01T14:50:47;4.85;;;0.55;;
25495;SDS011;13405;54.370;10.028;2022-07-01T14:53:13;0.88;;;0.63;;
25495;SDS011;13405;54.370;10.028;2022-07-01T14:55:39;3.50;;;0.45;;
25495;SDS011;13405;54.370;10.028;2022-07-01T14:58:05;3.50;;;0.63;;
25495;SDS011;13405;54.370;10.028;2022-07-01T15:00:31;1.67;;;0.47;;